createdAt,value
2022-09-03T00:02:19.332Z,16.90
2022-09-03T00:04:57.354Z,16.80
2022-09-03T00:07:35.483Z,16.90
2022-09-03T00:10:04.786Z,16.90
2022-09-03T00:12:37.948Z,16.80
2022-09-03T00:15:08.089Z,16.90
2022-09-03T00:17:38.524Z,16.80
2022-09-03T00:20:11.608Z,16.80
2022-09-03T00:22:43.251Z,16.80
2022-09-03T00:25:14.879Z,16.70
2022-09-03T00:27:44.891Z,16.70
2022-09-03T00:30:17.113Z,16.70
2022-09-03T00:32:47.772Z,16.60
2022-09-03T00:35:20.852Z,16.60
2022-09-03T00:37:49.341Z,16.50
2022-09-03T00:40:37.840Z,16.50
2022-09-03T00:43:12.276Z,16.50
2022-09-03T00:45:49.300Z,16.50
2022-09-03T00:48:28.341Z,16.40
2022-09-03T00:51:10.007Z,16.40
2022-09-03T00:53:45.634Z,16.50
2022-09-03T00:56:20.712Z,16.40
2022-09-03T00:59:07.549Z,16.40
2022-09-03T01:01:41.050Z,16.40
2022-09-03T01:04:31.885Z,16.30
2022-09-03T01:07:09.190Z,16.30
2022-09-03T01:09:49.211Z,16.30
2022-09-03T01:12:25.999Z,16.20
2022-09-03T01:15:04.577Z,16.20
2022-09-03T01:17:40.234Z,16.20
2022-09-03T01:20:35.530Z,16.20
2022-09-03T01:23:26.796Z,16.20
2022-09-03T01:26:03.460Z,16.10
2022-09-03T01:28:42.592Z,16.10
2022-09-03T01:31:21.976Z,16.10
2022-09-03T01:33:56.968Z,16.10
2022-09-03T01:36:30.326Z,16.00
2022-09-03T01:39:02.104Z,16.00
2022-09-03T01:42:02.826Z,16.00
2022-09-03T01:44:42.272Z,16.00
2022-09-03T01:47:18.751Z,15.90
2022-09-03T01:49:58.146Z,15.90
2022-09-03T01:52:37.164Z,15.90
2022-09-03T01:55:16.788Z,15.80
2022-09-03T01:57:50.859Z,15.90
2022-09-03T02:00:21.037Z,15.90
2022-09-03T02:02:51.203Z,15.70
2022-09-03T02:05:21.452Z,15.70
2022-09-03T02:07:52.843Z,15.70
2022-09-03T02:10:25.522Z,15.70
2022-09-03T02:12:57.235Z,15.70
2022-09-03T02:15:27.228Z,15.70
2022-09-03T02:17:56.886Z,15.70
2022-09-03T02:20:28.799Z,15.70
2022-09-03T02:22:57.549Z,15.70
2022-09-03T02:25:30.788Z,15.70
2022-09-03T02:27:58.179Z,15.60
2022-09-03T02:30:26.730Z,15.50
2022-09-03T02:32:53.873Z,15.50
2022-09-03T02:35:20.714Z,15.50
2022-09-03T02:37:47.559Z,15.50
2022-09-03T02:40:14.371Z,15.40
2022-09-03T02:42:41.912Z,15.50
2022-09-03T02:45:19.774Z,15.50
2022-09-03T02:47:52.641Z,15.50
2022-09-03T02:50:19.540Z,15.50
2022-09-03T02:52:47.110Z,15.50
2022-09-03T02:55:17.174Z,15.50
2022-09-03T02:57:44.290Z,15.50
2022-09-03T03:00:12.049Z,15.50
2022-09-03T03:02:39.594Z,15.50
2022-09-03T03:05:11.041Z,15.40
2022-09-03T03:07:41.207Z,15.40
2022-09-03T03:10:09.143Z,15.40
2022-09-03T03:12:36.104Z,15.30
2022-09-03T03:15:03.144Z,15.30
2022-09-03T03:17:31.099Z,15.30
2022-09-03T03:19:57.938Z,15.30
2022-09-03T03:22:26.395Z,15.30
2022-09-03T03:24:55.328Z,15.20
2022-09-03T03:27:22.626Z,15.10
2022-09-03T03:29:50.371Z,15.10
2022-09-03T03:32:17.441Z,15.00
2022-09-03T03:34:44.285Z,15.00
2022-09-03T03:37:11.104Z,15.10
2022-09-03T03:39:39.316Z,15.00
2022-09-03T03:42:06.487Z,15.00
2022-09-03T03:44:33.368Z,14.90
2022-09-03T03:47:00.621Z,14.90
2022-09-03T03:49:27.412Z,14.80
2022-09-03T03:51:54.469Z,14.90
2022-09-03T03:54:22.412Z,14.80
2022-09-03T03:56:55.544Z,14.80
2022-09-03T03:59:22.933Z,14.80
2022-09-03T04:01:51.145Z,14.80
2022-09-03T04:04:18.054Z,14.80
2022-09-03T04:06:45.463Z,14.70
2022-09-03T04:09:12.680Z,14.70
2022-09-03T04:11:46.283Z,14.70
2022-09-03T04:14:20.615Z,14.60
2022-09-03T04:16:47.910Z,14.60
2022-09-03T04:19:14.723Z,14.60
2022-09-03T04:21:42.047Z,14.60
2022-09-03T04:24:09.039Z,14.60
2022-09-03T04:26:37.285Z,14.50
2022-09-03T04:29:06.155Z,14.50
2022-09-03T04:31:36.527Z,14.50
2022-09-03T04:34:06.505Z,14.40
2022-09-03T04:36:35.299Z,14.40
2022-09-03T04:39:02.574Z,14.40
2022-09-03T04:41:31.458Z,14.40
2022-09-03T04:43:59.706Z,14.30
2022-09-03T04:46:31.506Z,14.40
2022-09-03T04:49:00.303Z,14.20
2022-09-03T04:51:28.792Z,14.20
2022-09-03T04:53:57.685Z,14.10
2022-09-03T04:56:27.153Z,14.10
2022-09-03T04:58:56.732Z,14.10
2022-09-03T05:01:26.220Z,14.10
2022-09-03T05:03:55.255Z,14.20
2022-09-03T05:06:24.848Z,14.30
2022-09-03T05:08:52.877Z,14.30
2022-09-03T05:11:21.822Z,14.30
2022-09-03T05:13:50.149Z,14.30
2022-09-03T05:16:18.755Z,14.30
2022-09-03T05:18:47.856Z,14.40
2022-09-03T05:21:18.310Z,14.40
2022-09-03T05:23:48.023Z,14.40
2022-09-03T05:26:18.261Z,14.40
2022-09-03T05:28:45.470Z,14.50
2022-09-03T05:31:14.740Z,14.50
2022-09-03T05:33:44.413Z,14.50
2022-09-03T05:36:13.852Z,14.60
2022-09-03T05:38:40.844Z,14.70
2022-09-03T05:41:10.560Z,14.80
2022-09-03T05:43:38.353Z,14.80
2022-09-03T05:46:07.650Z,14.90
2022-09-03T05:48:35.755Z,14.90
2022-09-03T05:51:05.120Z,15.00
2022-09-03T05:53:34.784Z,15.10
2022-09-03T05:56:04.166Z,15.10
2022-09-03T05:58:33.083Z,15.20
2022-09-03T06:01:00.266Z,15.30
2022-09-03T06:03:27.535Z,15.30
2022-09-03T06:05:55.304Z,15.30
2022-09-03T06:08:22.687Z,15.40
2022-09-03T06:10:49.869Z,15.50
2022-09-03T06:13:16.665Z,15.60
2022-09-03T06:15:45.180Z,15.70
2022-09-03T06:18:12.289Z,15.80
2022-09-03T06:20:39.483Z,15.90
2022-09-03T06:23:06.306Z,16.00
2022-09-03T06:25:33.686Z,16.10
2022-09-03T06:28:02.210Z,16.20
2022-09-03T06:30:29.352Z,16.20
2022-09-03T06:32:59.199Z,16.20
2022-09-03T06:35:26.072Z,16.20
2022-09-03T06:37:54.020Z,16.20
2022-09-03T06:40:23.015Z,16.30
2022-09-03T06:42:59.198Z,16.30
2022-09-03T06:45:26.420Z,16.30
2022-09-03T06:47:54.176Z,16.40
2022-09-03T06:50:22.825Z,16.40
2022-09-03T06:52:53.835Z,16.50
2022-09-03T06:55:21.416Z,16.50
2022-09-03T06:57:48.393Z,16.60
2022-09-03T07:00:21.605Z,16.70
2022-09-03T07:02:48.760Z,16.80
2022-09-03T07:05:16.161Z,16.90
2022-09-03T07:07:46.130Z,17.00
2022-09-03T07:10:16.631Z,17.10
2022-09-03T07:12:43.440Z,17.20
2022-09-03T07:15:11.344Z,17.30
2022-09-03T07:17:39.406Z,17.40
2022-09-03T07:20:07.252Z,17.40
2022-09-03T07:22:35.452Z,17.50
2022-09-03T07:25:04.648Z,17.60
2022-09-03T07:27:31.516Z,17.70
2022-09-03T07:29:58.610Z,17.70
2022-09-03T07:32:25.370Z,17.80
2022-09-03T07:34:52.890Z,17.90
2022-09-03T07:37:19.867Z,17.90
2022-09-03T07:39:46.874Z,18.00
2022-09-03T07:42:15.121Z,18.00
2022-09-03T07:44:42.268Z,18.10
2022-09-03T07:47:09.115Z,18.20
2022-09-03T07:49:36.942Z,18.20
2022-09-03T07:52:03.861Z,18.30
2022-09-03T07:54:31.889Z,18.30
2022-09-03T07:56:59.260Z,18.40
2022-09-03T07:59:27.806Z,18.40
2022-09-03T08:01:54.739Z,18.40
2022-09-03T08:04:22.129Z,18.50
2022-09-03T08:06:49.638Z,18.60
2022-09-03T08:09:16.827Z,18.70
2022-09-03T08:11:43.974Z,18.70
2022-09-03T08:14:12.519Z,18.80
2022-09-03T08:16:43.243Z,18.90
2022-09-03T08:19:12.291Z,18.90
2022-09-03T08:21:42.053Z,19.00
2022-09-03T08:24:09.130Z,19.00
2022-09-03T08:26:38.244Z,19.10
2022-09-03T08:29:05.979Z,19.20
2022-09-03T08:31:34.318Z,19.30
2022-09-03T08:34:06.757Z,19.40
2022-09-03T08:36:37.389Z,19.50
2022-09-03T08:39:10.207Z,19.50
2022-09-03T08:41:48.693Z,19.70
2022-09-03T08:44:22.551Z,19.90
2022-09-03T08:46:54.346Z,20.10
2022-09-03T08:49:27.019Z,20.30
2022-09-03T08:51:57.433Z,20.20
2022-09-03T08:54:29.944Z,20.20
2022-09-03T08:57:00.513Z,20.10
2022-09-03T08:59:30.114Z,20.20
2022-09-03T09:02:15.474Z,20.30
2022-09-03T09:04:57.998Z,20.30
2022-09-03T09:07:32.323Z,20.40
2022-09-03T09:10:09.370Z,20.40
2022-09-03T09:12:47.065Z,20.40
2022-09-03T09:15:26.707Z,20.50
2022-09-03T09:18:06.040Z,20.50
2022-09-03T09:20:42.887Z,20.60
2022-09-03T09:23:14.886Z,20.60
2022-09-03T09:25:48.223Z,20.60
2022-09-03T09:28:19.409Z,20.70
2022-09-03T09:30:48.288Z,20.80
2022-09-03T09:33:15.799Z,20.80
2022-09-03T09:35:44.574Z,20.80
2022-09-03T09:38:12.667Z,20.90
2022-09-03T09:40:45.565Z,21.00
2022-09-03T09:43:15.853Z,21.10
2022-09-03T09:45:45.000Z,21.10
2022-09-03T09:48:21.003Z,21.30
2022-09-03T09:50:49.959Z,21.20
2022-09-03T09:53:21.440Z,21.20
2022-09-03T09:55:54.760Z,21.20
2022-09-03T09:58:23.940Z,21.20
2022-09-03T10:00:59.843Z,20.90
2022-09-03T10:03:29.737Z,20.80
2022-09-03T10:06:26.155Z,20.60
2022-09-03T10:08:54.515Z,20.50
2022-09-03T10:11:25.717Z,20.50
2022-09-03T10:13:54.461Z,20.60
2022-09-03T10:16:29.102Z,20.70
2022-09-03T10:19:04.390Z,20.80
2022-09-03T10:21:39.806Z,20.90
2022-09-03T10:24:21.332Z,20.90
2022-09-03T10:26:48.507Z,21.00
2022-09-03T10:29:20.947Z,21.00
2022-09-03T10:32:01.761Z,20.90
2022-09-03T10:34:37.252Z,21.10
2022-09-03T10:37:18.728Z,21.10
2022-09-03T10:40:01.462Z,21.10
2022-09-03T10:42:40.171Z,21.20
2022-09-03T10:45:17.856Z,21.40
2022-09-03T10:48:08.483Z,21.50
2022-09-03T10:50:46.497Z,21.60
2022-09-03T10:53:25.577Z,21.60
2022-09-03T10:56:00.420Z,21.80
2022-09-03T10:58:41.735Z,21.90
2022-09-03T11:01:22.300Z,22.10
2022-09-03T11:03:57.390Z,22.00
2022-09-03T11:06:28.227Z,22.10
2022-09-03T11:09:05.940Z,22.10
2022-09-03T11:11:38.029Z,22.10
2022-09-03T11:14:09.131Z,22.20
2022-09-03T11:16:40.888Z,22.30
2022-09-03T11:19:11.439Z,22.30
2022-09-03T11:21:41.825Z,22.40
2022-09-03T11:24:14.955Z,22.40
2022-09-03T11:26:44.663Z,22.50
2022-09-03T11:29:18.395Z,22.40
2022-09-03T11:31:59.428Z,22.60
2022-09-03T11:34:32.150Z,22.70
2022-09-03T11:37:17.526Z,22.80
2022-09-03T11:39:53.776Z,22.90
2022-09-03T11:42:37.057Z,23.10
2022-09-03T11:45:21.482Z,23.30
2022-09-03T11:47:50.704Z,23.50
2022-09-03T11:50:22.510Z,23.70
2022-09-03T11:52:51.824Z,23.80
2022-09-03T11:55:37.578Z,24.00
2022-09-03T11:58:20.656Z,24.00
2022-09-03T12:00:50.809Z,23.80
2022-09-03T12:03:18.734Z,23.60
2022-09-03T12:05:53.883Z,23.60
2022-09-03T12:08:51.327Z,23.90
2022-09-03T12:11:34.816Z,24.10
2022-09-03T12:14:13.827Z,24.50
2022-09-03T12:17:00.625Z,24.80
2022-09-03T12:19:35.946Z,24.90
2022-09-03T12:22:05.459Z,24.90
2022-09-03T12:24:38.359Z,24.70
2022-09-03T12:27:10.291Z,24.70
2022-09-03T12:29:37.826Z,24.80
2022-09-03T12:32:11.532Z,25.10
2022-09-03T12:34:38.416Z,25.30
2022-09-03T12:37:19.637Z,25.50
2022-09-03T12:40:08.658Z,25.80
2022-09-03T12:42:37.187Z,26.00
2022-09-03T12:45:15.657Z,26.20
2022-09-03T12:47:44.061Z,26.40
2022-09-03T12:50:16.884Z,26.40
2022-09-03T12:52:47.400Z,26.60
2022-09-03T12:55:28.167Z,26.60
2022-09-03T12:58:02.822Z,26.80
2022-09-03T13:00:33.044Z,27.00
2022-09-03T13:03:04.262Z,27.10
2022-09-03T13:05:34.026Z,27.40
2022-09-03T13:08:05.875Z,27.50
2022-09-03T13:10:37.990Z,27.60
2022-09-03T13:13:21.393Z,27.70
2022-09-03T13:16:09.811Z,27.80
2022-09-03T13:18:46.088Z,27.70
2022-09-03T13:21:18.738Z,27.60
2022-09-03T13:23:59.568Z,27.40
2022-09-03T13:26:36.327Z,27.70
2022-09-03T13:29:24.774Z,27.60
2022-09-03T13:31:55.429Z,27.70
2022-09-03T13:34:30.330Z,27.70
2022-09-03T13:37:04.035Z,27.90
2022-09-03T13:39:38.266Z,28.00
2022-09-03T13:42:13.283Z,28.00
2022-09-03T13:44:47.703Z,27.90
2022-09-03T13:47:26.399Z,27.90
2022-09-03T13:50:20.537Z,28.20
2022-09-03T13:52:53.251Z,28.30
2022-09-03T13:55:23.962Z,28.10
2022-09-03T13:58:01.509Z,28.00
2022-09-03T14:00:34.884Z,28.10
2022-09-03T14:03:12.019Z,27.60
2022-09-03T14:05:54.850Z,28.00
2022-09-03T14:08:28.145Z,28.30
2022-09-03T14:11:02.499Z,28.60
2022-09-03T14:13:42.352Z,28.60
2022-09-03T14:16:17.082Z,28.40
2022-09-03T14:18:52.519Z,28.10
2022-09-03T14:21:24.728Z,28.20
2022-09-03T14:24:01.655Z,28.00
2022-09-03T14:26:39.048Z,28.10
2022-09-03T14:29:15.611Z,28.30
2022-09-03T14:32:13.971Z,28.50
2022-09-03T14:34:55.753Z,28.40
2022-09-03T14:37:43.554Z,28.50
2022-09-03T14:40:16.884Z,28.50
2022-09-03T14:42:58.475Z,28.60
2022-09-03T14:45:53.635Z,28.50
2022-09-03T14:48:43.373Z,28.20
2022-09-03T14:51:27.649Z,28.20
2022-09-03T14:54:16.036Z,28.10
2022-09-03T14:56:54.863Z,28.00
2022-09-03T14:59:41.878Z,28.00
2022-09-03T15:02:26.531Z,28.40
2022-09-03T15:05:20.943Z,28.40
2022-09-03T15:07:51.253Z,28.30
2022-09-03T15:10:26.889Z,28.20
2022-09-03T15:12:58.005Z,28.60
2022-09-03T15:15:31.007Z,28.60
2022-09-03T15:18:14.532Z,28.50
2022-09-03T15:20:50.467Z,28.50
2022-09-03T15:23:26.186Z,28.40
2022-09-03T15:26:23.105Z,28.20
2022-09-03T15:29:07.342Z,28.20
2022-09-03T15:31:46.270Z,27.80
2022-09-03T15:34:33.881Z,27.90
2022-09-03T15:37:09.856Z,28.10
2022-09-03T15:39:40.781Z,28.30
2022-09-03T15:42:14.819Z,28.20
2022-09-03T15:44:47.348Z,27.90
2022-09-03T15:47:35.246Z,28.00
2022-09-03T15:50:30.003Z,28.10
2022-09-03T15:53:04.832Z,28.20
2022-09-03T15:55:37.122Z,28.10
2022-09-03T15:58:11.579Z,27.70
2022-09-03T16:00:52.144Z,27.60
2022-09-03T16:03:31.683Z,27.60
2022-09-03T16:06:04.412Z,27.60
2022-09-03T16:08:41.751Z,27.10
2022-09-03T16:11:13.803Z,26.80
2022-09-03T16:14:02.367Z,26.60
2022-09-03T16:16:31.844Z,26.30
2022-09-03T16:19:05.571Z,25.90
2022-09-03T16:21:39.543Z,25.50
2022-09-03T16:24:17.231Z,25.30
2022-09-03T16:26:54.886Z,24.90
2022-09-03T16:29:27.123Z,24.70
2022-09-03T16:32:22.049Z,24.50
2022-09-03T16:35:02.878Z,24.40
2022-09-03T16:37:39.805Z,24.30
2022-09-03T16:40:16.862Z,24.20
2022-09-03T16:42:50.850Z,24.10
2022-09-03T16:45:27.271Z,24.00
2022-09-03T16:48:10.923Z,23.90
2022-09-03T16:50:53.127Z,23.80
2022-09-03T16:53:29.741Z,23.70
2022-09-03T16:56:12.477Z,23.60
2022-09-03T16:58:50.032Z,23.60
2022-09-03T17:01:32.189Z,23.50
2022-09-03T17:04:40.920Z,23.40
2022-09-03T17:07:26.784Z,23.40
2022-09-03T17:10:01.641Z,23.30
2022-09-03T17:12:38.573Z,23.20
2022-09-03T17:15:30.454Z,23.10
2022-09-03T17:18:34.728Z,23.10
2022-09-03T17:21:14.522Z,22.90
2022-09-03T17:23:59.558Z,22.90
2022-09-03T17:26:34.569Z,22.90
2022-09-03T17:29:15.917Z,22.80
2022-09-03T17:31:52.152Z,22.70
2022-09-03T17:34:38.100Z,22.60
2022-09-03T17:37:16.428Z,22.50
2022-09-03T17:40:00.432Z,22.50
2022-09-03T17:42:33.112Z,22.40
2022-09-03T17:45:14.923Z,22.40
2022-09-03T17:48:17.294Z,22.30
2022-09-03T17:50:50.300Z,22.20
2022-09-03T17:53:25.015Z,22.10
2022-09-03T17:55:57.576Z,22.00
2022-09-03T17:58:31.132Z,22.00
2022-09-03T18:01:07.839Z,22.00
2022-09-03T18:03:44.517Z,21.90
2022-09-03T18:06:24.065Z,21.80
2022-09-03T18:08:57.138Z,21.70
2022-09-03T18:11:33.848Z,21.60
2022-09-03T18:14:11.566Z,21.60
2022-09-03T18:16:47.518Z,21.60
2022-09-03T18:19:30.451Z,21.60
2022-09-03T18:22:19.180Z,21.60
2022-09-03T18:25:12.631Z,21.50
2022-09-03T18:28:03.188Z,21.50
2022-09-03T18:30:48.490Z,21.30
2022-09-03T18:33:39.810Z,21.30
2022-09-03T18:36:26.077Z,21.30
2022-09-03T18:39:11.802Z,21.20
2022-09-03T18:42:15.066Z,21.10
2022-09-03T18:45:21.521Z,21.10
2022-09-03T18:48:25.436Z,21.00
2022-09-03T18:51:19.413Z,20.90
2022-09-03T18:54:21.363Z,21.00
2022-09-03T18:57:08.811Z,20.80
2022-09-03T19:00:18.632Z,20.70
2022-09-03T19:03:21.315Z,20.70
2022-09-03T19:06:19.046Z,20.60
2022-09-03T19:09:14.887Z,20.50
2022-09-03T19:12:09.953Z,20.50
2022-09-03T19:15:04.909Z,20.50
2022-09-03T19:18:03.389Z,20.40
2022-09-03T19:20:50.890Z,20.40
2022-09-03T19:23:37.809Z,20.40
2022-09-03T19:26:39.843Z,20.30
2022-09-03T19:29:36.842Z,20.30
2022-09-03T19:32:28.728Z,20.20
2022-09-03T19:35:30.567Z,20.20
2022-09-03T19:38:29.307Z,20.10
2022-09-03T19:41:34.859Z,20.10
2022-09-03T19:44:35.927Z,20.00
2022-09-03T19:47:23.754Z,19.90
2022-09-03T19:50:20.199Z,19.80
2022-09-03T19:53:11.394Z,19.80
2022-09-03T19:56:07.218Z,19.80
2022-09-03T19:58:57.539Z,19.80
2022-09-03T20:01:47.930Z,19.70
2022-09-03T20:04:34.738Z,19.70
2022-09-03T20:07:23.362Z,19.50
2022-09-03T20:10:09.775Z,19.50
2022-09-03T20:12:41.073Z,19.50
2022-09-03T20:15:10.600Z,19.50
2022-09-03T20:17:49.663Z,19.30
2022-09-03T20:20:24.911Z,19.40
2022-09-03T20:22:59.389Z,19.30
2022-09-03T20:25:43.178Z,19.30
2022-09-03T20:28:21.283Z,19.20
2022-09-03T20:30:57.723Z,19.20
2022-09-03T20:33:43.245Z,19.20
2022-09-03T20:36:24.311Z,19.10
2022-09-03T20:39:04.678Z,19.10
2022-09-03T20:41:39.812Z,19.00
2022-09-03T20:44:35.134Z,18.90
2022-09-03T20:47:21.362Z,18.90
2022-09-03T20:49:56.927Z,18.90
2022-09-03T20:52:33.639Z,18.80
2022-09-03T20:55:05.794Z,18.80
2022-09-03T20:57:41.113Z,18.80
2022-09-03T21:00:13.907Z,18.70
2022-09-03T21:03:00.596Z,18.70
2022-09-03T21:05:32.470Z,18.70
2022-09-03T21:08:11.547Z,18.70
2022-09-03T21:10:47.966Z,18.60
2022-09-03T21:13:23.664Z,18.60
2022-09-03T21:15:57.267Z,18.60
2022-09-03T21:18:35.072Z,18.50
2022-09-03T21:21:10.825Z,18.50
2022-09-03T21:23:42.268Z,18.50
2022-09-03T21:26:15.140Z,18.50
2022-09-03T21:28:45.709Z,18.50
2022-09-03T21:31:19.524Z,18.40
2022-09-03T21:33:52.170Z,18.40
2022-09-03T21:36:25.859Z,18.40
2022-09-03T21:39:05.778Z,18.40
2022-09-03T21:41:38.234Z,18.30
2022-09-03T21:44:10.495Z,18.40
2022-09-03T21:46:46.041Z,18.30
2022-09-03T21:49:20.192Z,18.30
2022-09-03T21:51:53.106Z,18.30
2022-09-03T21:54:28.539Z,18.30
2022-09-03T21:57:12.821Z,18.30
2022-09-03T22:00:02.645Z,18.20
2022-09-03T22:02:31.948Z,18.20
2022-09-03T22:05:01.474Z,18.10
2022-09-03T22:07:42.160Z,18.00
2022-09-03T22:10:20.231Z,18.00
2022-09-03T22:12:55.657Z,17.90
2022-09-03T22:15:22.990Z,17.80
2022-09-03T22:17:56.973Z,17.80
2022-09-03T22:20:27.935Z,17.80
2022-09-03T22:22:58.163Z,17.80
2022-09-03T22:25:34.117Z,17.70
2022-09-03T22:28:07.553Z,17.70
2022-09-03T22:30:40.524Z,17.70
2022-09-03T22:33:15.394Z,17.70
2022-09-03T22:36:01.503Z,17.60
2022-09-03T22:38:53.338Z,17.60
2022-09-03T22:41:53.415Z,17.60
2022-09-03T22:44:33.426Z,17.50
2022-09-03T22:47:11.732Z,17.40
2022-09-03T22:49:47.176Z,17.40
2022-09-03T22:52:30.884Z,17.30
2022-09-03T22:55:12.472Z,17.30
2022-09-03T22:57:47.943Z,17.20
2022-09-03T23:00:15.866Z,17.20
2022-09-03T23:02:44.346Z,17.10
2022-09-03T23:05:30.373Z,17.00
2022-09-03T23:08:06.173Z,17.00
2022-09-03T23:10:44.318Z,17.00
2022-09-03T23:13:17.310Z,16.90
2022-09-03T23:15:49.782Z,16.90
2022-09-03T23:18:26.459Z,16.90
2022-09-03T23:21:03.303Z,16.90
2022-09-03T23:23:34.316Z,16.90
2022-09-03T23:26:13.655Z,16.90
2022-09-03T23:28:45.449Z,16.80
2022-09-03T23:31:19.694Z,16.80
2022-09-03T23:33:47.556Z,16.70
2022-09-03T23:36:44.655Z,16.70
2022-09-03T23:39:22.507Z,16.60
2022-09-03T23:41:58.384Z,16.70
2022-09-03T23:44:43.847Z,16.60
2022-09-03T23:47:23.176Z,16.60
2022-09-03T23:49:59.045Z,16.70
2022-09-03T23:52:53.282Z,16.70
2022-09-03T23:55:32.870Z,16.70
2022-09-03T23:58:09.821Z,16.60
